Time;durP1;ratioP1;P1;durP2;ratioP2;P2;SDS_P1;SDS_P2;PMS_P1;PMS_P2;Temp;Humidity;BMP_temperature;BMP_pressure;BME280_temperature;BME280_humidity;BME280_pressure;Samples;Min_cycle;Max_cycle;Signal;HPM_P1;HPM_P2
2023/05/20 00:01:15;;;;;;;2.50;2.10;;;;;;;14.61;91.61;100439.25;5087276;28;20236;-63
2023/05/20 00:03:40;;;;;;;4.30;2.30;;;;;;;14.51;92.61;100441.59;5092589;28;20276;-63
2023/05/20 00:06:06;;;;;;;2.87;2.30;;;;;;;14.53;92.76;100437.16;5092463;28;20187;-64
2023/05/20 00:08:31;;;;;;;6.43;2.40;;;;;;;14.56;93.23;100428.38;5094067;28;20198;-63
2023/05/20 00:10:56;;;;;;;2.60;2.13;;;;;;;14.62;93.23;100433.13;5104486;27;20274;-63
2023/05/20 00:13:23;;;;;;;2.50;2.30;;;;;;;14.62;93.76;100433.13;5107915;27;20200;-63
2023/05/20 00:15:48;;;;;;;2.67;2.27;;;;;;;14.57;93.78;100424.84;5078600;28;20655;-63
2023/05/20 00:18:13;;;;;;;3.27;2.10;;;;;;;14.51;94.50;100432.09;5083190;28;20203;-63
2023/05/20 00:20:38;;;;;;;3.00;2.23;;;;;;;14.49;95.18;100428.75;5083932;28;20254;-63
2023/05/20 00:23:04;;;;;;;4.70;2.80;;;;;;;14.43;95.83;100426.59;5103419;28;20232;-64
2023/05/20 00:25:31;;;;;;;2.70;2.50;;;;;;;14.47;95.63;100425.44;5105587;28;20168;-64
2023/05/20 00:27:56;;;;;;;3.17;2.23;;;;;;;14.39;96.48;100430.31;5092385;28;20315;-63
2023/05/20 00:30:21;;;;;;;2.97;2.43;;;;;;;14.34;96.98;100427.19;5066365;28;20752;-63
2023/05/20 00:32:47;;;;;;;2.93;2.30;;;;;;;14.35;97.55;100429.69;5105872;27;20182;-63
2023/05/20 00:35:12;;;;;;;2.27;2.07;;;;;;;14.34;97.62;100437.53;5092114;28;20241;-63
2023/05/20 00:37:38;;;;;;;3.10;2.57;;;;;;;14.32;97.96;100435.03;5074115;28;20210;-62
2023/05/20 00:40:03;;;;;;;3.10;2.73;;;;;;;14.25;99.03;100435.53;5083081;28;20207;-62
2023/05/20 00:42:30;;;;;;;3.23;2.40;;;;;;;14.31;98.54;100427.38;5107906;28;20560;-62
2023/05/20 00:44:55;;;;;;;2.93;2.63;;;;;;;14.22;99.56;100431.41;5092922;28;20184;-63
2023/05/20 00:47:27;;;;;;;4.57;2.47;;;;;;;14.24;99.27;100436.47;5092098;28;20171;-63
2023/05/20 00:49:52;;;;;;;2.50;2.30;;;;;;;14.18;100.00;100430.75;5092463;28;20180;-64
2023/05/20 00:52:18;;;;;;;4.67;2.37;;;;;;;14.15;100.00;100424.94;5097706;28;20230;-63
2023/05/20 00:54:44;;;;;;;3.03;2.50;;;;;;;14.13;100.00;100421.66;5093015;28;20200;-64
2023/05/20 00:57:10;;;;;;;3.30;2.43;;;;;;;14.11;100.00;100420.91;5105072;28;20633;-64
2023/05/20 00:59:36;;;;;;;5.50;2.73;;;;;;;14.10;100.00;100419.25;5086499;28;20203;-64
2023/05/20 01:02:03;;;;;;;3.03;2.67;;;;;;;14.01;100.00;100425.84;5086212;28;20231;-64
2023/05/20 01:04:30;;;;;;;3.00;2.77;;;;;;;14.03;100.00;100421.41;5091971;28;20188;-64
2023/05/20 01:06:56;;;;;;;4.23;2.53;;;;;;;14.11;100.00;100423.50;5091883;28;20202;-64
2023/05/20 01:09:22;;;;;;;4.17;2.33;;;;;;;14.11;100.00;100421.72;5092284;28;20187;-64
2023/05/20 01:11:55;;;;;;;3.10;2.90;;;;;;;14.02;100.00;100415.41;5065427;28;20235;-63
2023/05/20 01:14:23;;;;;;;4.63;2.53;;;;;;;14.02;100.00;100417.97;5111372;28;20218;-62
2023/05/20 01:16:50;;;;;;;4.27;2.53;;;;;;;14.00;100.00;100419.00;5094190;28;20761;-62
2023/05/20 01:19:26;;;;;;;3.30;2.53;;;;;;;13.98;100.00;100418.25;5067333;28;20251;-62
2023/05/20 01:21:52;;;;;;;4.77;2.63;;;;;;;14.04;100.00;100423.03;5098341;28;21178;-64
2023/05/20 01:24:18;;;;;;;2.70;2.37;;;;;;;13.95;100.00;100416.69;5113302;28;20639;-62
2023/05/20 01:26:47;;;;;;;3.50;2.53;;;;;;;13.87;100.00;100422.38;5108175;28;20182;-64
2023/05/20 01:29:12;;;;;;;4.03;2.47;;;;;;;13.80;100.00;100412.53;5111659;28;20707;-63
2023/05/20 01:31:38;;;;;;;4.90;2.40;;;;;;;13.81;100.00;100407.25;5112402;28;20218;-63
2023/05/20 01:34:04;;;;;;;2.30;2.10;;;;;;;13.72;100.00;100413.00;5114423;28;20278;-63
2023/05/20 01:36:31;;;;;;;2.67;2.47;;;;;;;13.72;100.00;100416.41;5110644;28;20647;-62
2023/05/20 01:38:57;;;;;;;3.10;2.43;;;;;;;13.65;100.00;100409.97;5111616;28;20183;-62
2023/05/20 01:41:25;;;;;;;4.00;2.57;;;;;;;13.57;100.00;100417.38;5105345;28;20254;-63
2023/05/20 01:43:50;;;;;;;3.20;2.53;;;;;;;13.65;100.00;100409.16;5109510;28;20179;-63
2023/05/20 01:46:16;;;;;;;4.30;2.50;;;;;;;13.62;100.00;100412.75;5109215;28;20282;-64
2023/05/20 01:48:41;;;;;;;3.37;2.57;;;;;;;13.55;100.00;100406.31;5111109;28;20228;-62
2023/05/20 01:51:07;;;;;;;4.33;2.93;;;;;;;13.51;100.00;100412.59;5108322;28;20215;-62
2023/05/20 01:53:32;;;;;;;4.17;2.77;;;;;;;13.50;100.00;100410.94;5118257;28;20199;-63
2023/05/20 01:55:57;;;;;;;2.87;2.20;;;;;;;13.48;100.00;100413.63;5109196;28;20597;-63
2023/05/20 01:58:23;;;;;;;3.43;2.33;;;;;;;13.37;100.00;100401.34;5100675;28;20184;-63
2023/05/20 02:00:48;;;;;;;4.97;2.50;;;;;;;13.34;100.00;100393.75;5086955;28;20221;-64
2023/05/20 02:03:13;;;;;;;4.07;2.97;;;;;;;13.34;100.00;100395.50;5101561;28;20195;-64
2023/05/20 02:05:39;;;;;;;4.87;2.77;;;;;;;13.24;100.00;100398.63;5095141;28;20176;-62
2023/05/20 02:08:04;;;;;;;4.30;3.40;;;;;;;13.20;100.00;100391.19;5094990;28;20183;-63
2023/05/20 02:10:30;;;;;;;2.93;2.73;;;;;;;13.16;100.00;100387.97;5087761;28;20309;-63
2023/05/20 02:12:55;;;;;;;2.30;2.10;;;;;;;13.07;100.00;100391.94;5107090;27;20619;-63
2023/05/20 02:15:20;;;;;;;3.90;2.93;;;;;;;13.07;100.00;100391.09;5094411;28;20626;-63
2023/05/20 02:17:46;;;;;;;4.90;2.93;;;;;;;13.10;100.00;100390.06;5100746;28;20168;-63
2023/05/20 02:20:12;;;;;;;3.37;2.50;;;;;;;13.01;100.00;100383.72;5089726;27;20516;-63
2023/05/20 02:22:38;;;;;;;4.33;2.80;;;;;;;13.00;100.00;100385.47;5129177;27;20264;-63
2023/05/20 02:25:04;;;;;;;7.67;2.97;;;;;;;12.83;100.00;100393.41;5113794;28;20175;-63
2023/05/20 02:27:29;;;;;;;3.17;2.87;;;;;;;12.90;100.00;100385.19;5114752;28;20191;-62
2023/05/20 02:29:54;;;;;;;6.43;3.00;;;;;;;12.87;100.00;100387.94;5113553;28;20186;-63
2023/05/20 02:32:20;;;;;;;3.63;2.73;;;;;;;12.90;100.00;100389.53;5102343;27;20211;-63
2023/05/20 02:34:45;;;;;;;3.83;2.70;;;;;;;12.83;100.00;100393.41;5113538;28;20196;-63
2023/05/20 02:37:11;;;;;;;2.80;2.60;;;;;;;12.82;100.00;100391.75;5114066;28;20571;-63
2023/05/20 02:39:36;;;;;;;5.93;3.00;;;;;;;12.66;100.00;100391.81;5113944;28;20194;-63
2023/05/20 02:42:01;;;;;;;3.23;2.33;;;;;;;12.78;100.00;100392.84;5119148;27;20230;-62
2023/05/20 02:44:26;;;;;;;4.53;2.63;;;;;;;12.85;100.00;100386.38;5113637;27;20613;-63
2023/05/20 02:46:52;;;;;;;3.00;2.40;;;;;;;12.79;100.00;100386.75;5114438;28;20634;-63
2023/05/20 02:49:17;;;;;;;5.20;2.80;;;;;;;12.68;100.00;100388.22;5082149;28;20183;-63
2023/05/20 02:51:42;;;;;;;5.33;2.93;;;;;;;12.62;100.00;100391.16;5116503;27;20218;-63
2023/05/20 02:54:08;;;;;;;4.20;2.87;;;;;;;12.62;100.00;100386.00;5108660;27;20658;-63
2023/05/20 02:56:33;;;;;;;5.37;3.10;;;;;;;12.55;100.00;100393.28;5112831;28;20293;-63
2023/05/20 02:58:59;;;;;;;4.83;2.80;;;;;;;12.39;100.00;100393.31;5098177;28;20176;-63
2023/05/20 03:01:24;;;;;;;3.33;2.50;;;;;;;12.53;100.00;100391.69;5083946;28;20218;-63
2023/05/20 03:03:49;;;;;;;3.90;2.87;;;;;;;12.68;100.00;100387.41;5111076;28;20635;-63
2023/05/20 03:06:15;;;;;;;2.83;2.63;;;;;;;12.72;100.00;100379.34;5102652;28;20187;-63
2023/05/20 03:08:41;;;;;;;4.53;2.60;;;;;;;12.74;100.00;100377.53;5113799;28;20186;-63
2023/05/20 03:11:07;;;;;;;5.70;3.23;;;;;;;12.65;100.00;100378.09;5111750;27;20218;-63
2023/05/20 03:13:33;;;;;;;3.50;3.20;;;;;;;12.74;100.00;100369.78;5120396;27;20203;-63
2023/05/20 03:16:00;;;;;;;3.27;2.93;;;;;;;12.56;100.00;100378.59;5108989;27;20226;-63
2023/05/20 03:18:25;;;;;;;3.23;2.67;;;;;;;12.72;100.00;100378.53;5117383;27;20176;-63
2023/05/20 03:20:50;;;;;;;5.60;2.80;;;;;;;12.65;100.00;100380.66;5077758;27;20692;-62
2023/05/20 03:23:16;;;;;;;3.40;3.07;;;;;;;12.66;100.00;100366.81;5122796;27;20227;-63
2023/05/20 03:25:41;;;;;;;6.03;3.30;;;;;;;12.81;100.00;100370.25;5105465;28;20187;-63
2023/05/20 03:28:06;;;;;;;3.67;2.60;;;;;;;12.86;100.00;100373.41;5093287;28;20210;-64
2023/05/20 03:30:31;;;;;;;6.93;2.73;;;;;;;12.91;100.00;100373.94;5066247;28;20231;-63
2023/05/20 03:32:57;;;;;;;5.50;2.87;;;;;;;12.88;100.00;100371.53;5104756;28;20548;-63
2023/05/20 03:35:23;;;;;;;3.40;3.10;;;;;;;12.94;100.00;100374.66;5093147;28;20183;-62
2023/05/20 03:37:50;;;;;;;4.27;2.90;;;;;;;13.02;100.00;100362.97;5093556;28;20180;-63
2023/05/20 03:40:15;;;;;;;7.53;3.07;;;;;;;13.00;100.00;100367.41;5071282;28;20646;-63
2023/05/20 03:42:41;;;;;;;5.77;3.30;;;;;;;12.85;100.00;100365.72;5107135;28;20175;-64
2023/05/20 03:45:06;;;;;;;4.63;2.97;;;;;;;12.94;100.00;100362.59;5093086;28;20183;-63
2023/05/20 03:47:32;;;;;;;6.60;3.03;;;;;;;12.86;100.00;100364.81;5093016;28;20557;-63
2023/05/20 03:49:57;;;;;;;3.00;2.80;;;;;;;12.82;100.00;100363.34;5079877;28;20179;-63
2023/05/20 03:52:22;;;;;;;4.63;2.83;;;;;;;12.79;100.00;100363.50;5098328;28;20242;-62
2023/05/20 03:54:48;;;;;;;4.17;3.10;;;;;;;12.89;100.00;100365.47;5071649;28;20239;-62
2023/05/20 03:57:13;;;;;;;7.43;3.07;;;;;;;12.91;100.00;100367.94;5100561;28;20228;-63
2023/05/20 03:59:39;;;;;;;4.13;2.93;;;;;;;12.92;100.00;100367.03;5092652;28;20190;-63
2023/05/20 04:02:04;;;;;;;4.53;2.93;;;;;;;12.88;100.00;100356.03;5098216;27;20222;-64
2023/05/20 04:04:30;;;;;;;4.83;2.70;;;;;;;12.90;100.00;100359.38;5092886;28;20188;-62
2023/05/20 04:06:55;;;;;;;4.73;2.83;;;;;;;12.88;100.00;100362.97;5092800;28;20180;-62
2023/05/20 04:09:21;;;;;;;3.63;3.30;;;;;;;12.95;100.00;100361.69;5092911;28;20184;-63
2023/05/20 04:11:47;;;;;;;3.77;3.17;;;;;;;12.85;100.00;100363.13;5109169;27;20321;-64
2023/05/20 04:14:12;;;;;;;4.23;2.87;;;;;;;12.74;100.00;100359.47;5114600;27;20290;-62
2023/05/20 04:16:38;;;;;;;3.10;2.80;;;;;;;12.79;100.00;100360.94;5111881;28;20278;-63
2023/05/20 04:19:03;;;;;;;3.43;2.97;;;;;;;12.86;100.00;100360.50;5103365;28;20180;-63
2023/05/20 04:21:28;;;;;;;3.80;3.17;;;;;;;13.01;100.00;100363.91;5108089;27;20375;-63
2023/05/20 04:23:54;;;;;;;3.50;3.20;;;;;;;13.02;100.00;100373.31;5116821;27;20178;-64
2023/05/20 04:26:21;;;;;;;3.40;2.97;;;;;;;12.97;100.00;100366.75;5111004;28;20226;-63
2023/05/20 04:28:49;;;;;;;7.73;3.13;;;;;;;12.91;100.00;100357.59;5112246;28;20183;-63
2023/05/20 04:31:15;;;;;;;5.33;3.17;;;;;;;12.95;100.00;100364.28;5110814;27;20618;-63
2023/05/20 04:33:40;;;;;;;4.03;3.20;;;;;;;13.00;100.00;100369.13;5091525;28;20253;-62
2023/05/20 04:36:08;;;;;;;4.57;3.00;;;;;;;12.95;100.00;100366.00;5106996;28;20195;-62
2023/05/20 04:38:34;;;;;;;4.83;2.90;;;;;;;12.98;100.00;100366.66;5111966;28;20254;-62
2023/05/20 04:41:00;;;;;;;3.93;2.90;;;;;;;12.92;100.00;100364.44;5108587;27;20602;-62
2023/05/20 04:43:28;;;;;;;6.70;3.03;;;;;;;13.00;100.00;100367.41;5106728;28;20237;-63
2023/05/20 04:45:56;;;;;;;5.57;3.40;;;;;;;13.12;100.00;100367.56;5104238;28;20190;-63
2023/05/20 04:48:22;;;;;;;4.10;2.93;;;;;;;13.12;100.00;100365.81;5102165;28;20957;-63
2023/05/20 04:50:48;;;;;;;3.53;2.80;;;;;;;13.05;100.00;100364.53;5098987;28;20304;-63
2023/05/20 04:53:15;;;;;;;4.80;3.00;;;;;;;13.21;100.00;100360.09;5103206;28;20667;-63
2023/05/20 04:55:40;;;;;;;4.67;3.10;;;;;;;13.32;100.00;100359.44;5104699;28;20187;-63
2023/05/20 04:58:07;;;;;;;3.80;3.00;;;;;;;13.28;100.00;100357.13;5103264;28;20237;-63
2023/05/20 05:00:32;;;;;;;3.93;3.07;;;;;;;13.65;100.00;100365.19;5069120;28;20230;-63
2023/05/20 05:02:57;;;;;;;4.57;3.20;;;;;;;13.37;100.00;100356.53;5123713;28;20595;-63
2023/05/20 05:05:23;;;;;;;4.30;3.30;;;;;;;13.45;100.00;100351.78;5097820;28;20191;-64
2023/05/20 05:07:48;;;;;;;4.43;3.17;;;;;;;13.30;100.00;100357.88;5112055;28;20637;-64
2023/05/20 05:10:14;;;;;;;3.43;2.77;;;;;;;13.33;100.00;100358.50;5100193;28;20180;-63
2023/05/20 05:12:39;;;;;;;5.20;3.33;;;;;;;13.32;100.00;100351.69;5097250;28;20535;-63
2023/05/20 05:15:05;;;;;;;4.57;3.07;;;;;;;13.39;100.00;100352.16;5110437;28;20241;-64
2023/05/20 05:17:31;;;;;;;5.87;3.40;;;;;;;13.55;100.00;100349.44;5111805;28;20208;-63
2023/05/20 05:19:56;;;;;;;4.10;3.23;;;;;;;13.45;100.00;100340.63;5095619;28;20215;-63
2023/05/20 05:22:21;;;;;;;3.40;3.10;;;;;;;13.51;100.00;100348.00;5116659;28;20233;-63
2023/05/20 05:24:46;;;;;;;3.90;3.40;;;;;;;13.42;100.00;100341.66;5111341;28;20600;-63
2023/05/20 05:27:12;;;;;;;4.27;3.30;;;;;;;13.55;100.00;100333.94;5111245;28;20694;-63
2023/05/20 05:29:37;;;;;;;8.47;3.33;;;;;;;13.60;100.00;100331.88;5110765;28;20184;-63
2023/05/20 05:32:03;;;;;;;3.87;3.07;;;;;;;13.65;100.00;100332.41;5116283;28;20247;-63
2023/05/20 05:34:28;;;;;;;6.17;3.07;;;;;;;13.75;100.00;100329.25;5092185;28;20210;-63
2023/05/20 05:36:53;;;;;;;5.47;3.40;;;;;;;13.66;100.00;100335.84;5110803;28;20179;-63
2023/05/20 05:39:18;;;;;;;5.93;3.30;;;;;;;13.69;100.00;100333.91;5112365;28;20191;-64
2023/05/20 05:41:43;;;;;;;4.30;3.90;;;;;;;13.83;100.00;100339.91;5117946;27;20617;-63
2023/05/20 05:44:09;;;;;;;3.87;3.43;;;;;;;13.87;100.00;100341.41;5117948;27;20187;-63
2023/05/20 05:46:34;;;;;;;4.33;3.17;;;;;;;13.98;100.00;100330.34;5107237;28;20187;-63
2023/05/20 05:48:59;;;;;;;5.40;3.97;;;;;;;14.33;100.00;100335.78;5095446;28;20245;-64
2023/05/20 05:51:26;;;;;;;5.77;3.40;;;;;;;14.44;100.00;100332.47;5095862;28;20230;-63
2023/05/20 05:53:52;;;;;;;4.53;3.47;;;;;;;14.33;100.00;100332.38;5099520;28;20204;-64
2023/05/20 05:56:17;;;;;;;8.37;3.80;;;;;;;14.41;100.00;100326.69;5102050;28;20183;-64
2023/05/20 05:58:43;;;;;;;3.80;3.33;;;;;;;14.50;100.00;100321.72;5106186;28;20184;-64
2023/05/20 06:01:08;;;;;;;7.43;3.63;;;;;;;14.76;100.00;100323.47;5112978;27;20301;-65
2023/05/20 06:03:33;;;;;;;4.20;3.43;;;;;;;15.16;100.00;100320.72;5121386;27;20214;-64
2023/05/20 06:05:58;;;;;;;6.40;3.93;;;;;;;15.33;100.00;100316.94;5105968;28;20198;-65
2023/05/20 06:08:24;;;;;;;5.90;3.60;;;;;;;15.35;100.00;100324.63;5101667;28;20226;-66
2023/05/20 06:10:49;;;;;;;4.33;3.67;;;;;;;15.44;100.00;100324.78;5096209;27;20258;-66
2023/05/20 06:13:15;;;;;;;7.33;3.73;;;;;;;15.25;100.00;100319.25;5094340;28;20208;-65
2023/05/20 06:15:40;;;;;;;5.73;3.80;;;;;;;15.51;100.00;100321.75;5112779;28;20203;-66
2023/05/20 06:18:06;;;;;;;5.73;3.43;;;;;;;15.67;100.00;100327.47;5113950;28;20601;-65
2023/05/20 06:20:31;;;;;;;6.70;4.03;;;;;;;15.63;100.00;100326.88;5089890;27;20789;-65
2023/05/20 06:22:56;;;;;;;10.03;3.93;;;;;;;15.65;100.00;100317.22;5119723;27;20220;-65
2023/05/20 06:25:21;;;;;;;3.80;3.50;;;;;;;15.92;100.00;100318.75;5099334;28;20172;-65
2023/05/20 06:27:47;;;;;;;6.07;4.33;;;;;;;15.94;100.00;100324.66;5095849;28;20700;-66
2023/05/20 06:30:13;;;;;;;4.80;3.97;;;;;;;16.22;100.00;100322.59;5085281;27;20229;-64
2023/05/20 06:32:38;;;;;;;3.70;3.40;;;;;;;16.61;100.00;100314.53;5092730;27;20686;-59
2023/05/20 06:35:04;;;;;;;5.83;3.97;;;;;;;16.85;100.00;100321.38;5108042;28;20203;-65
2023/05/20 06:37:29;;;;;;;3.70;3.40;;;;;;;17.22;97.90;100316.75;5105130;28;20176;-68
2023/05/20 06:39:54;;;;;;;3.97;3.33;;;;;;;17.72;94.95;100312.81;5097763;28;20211;-62
2023/05/20 06:42:20;;;;;;;6.17;4.10;;;;;;;17.85;91.72;100321.28;5101972;27;20272;-64
2023/05/20 06:44:46;;;;;;;5.27;3.80;;;;;;;17.81;92.52;100319.03;5105758;28;20176;-63
2023/05/20 06:47:14;;;;;;;5.17;3.50;;;;;;;18.04;91.08;100314.59;5109319;28;20186;-63
2023/05/20 06:49:41;;;;;;;4.30;3.90;;;;;;;18.15;89.91;100311.09;5102061;28;20313;-61
2023/05/20 06:52:06;;;;;;;5.43;3.57;;;;;;;18.13;90.16;100315.59;5114002;27;20230;-62
2023/05/20 06:54:34;;;;;;;5.30;3.73;;;;;;;18.77;86.58;100306.72;5106467;28;20203;-61
2023/05/20 06:57:00;;;;;;;4.17;3.77;;;;;;;19.54;79.68;100317.47;5106011;28;20176;-63
2023/05/20 06:59:25;;;;;;;4.93;3.90;;;;;;;18.91;83.97;100300.34;5100634;28;20201;-62
2023/05/20 07:01:50;;;;;;;4.87;3.53;;;;;;;19.31;80.82;100309.91;5087981;28;20219;-70
2023/05/20 07:04:15;;;;;;;4.90;3.57;;;;;;;19.71;75.89;100315.97;5106146;28;20234;-65
2023/05/20 07:06:41;;;;;;;4.53;3.50;;;;;;;19.14;80.02;100319.22;5075057;28;20180;-63
2023/05/20 07:09:06;;;;;;;6.20;3.97;;;;;;;19.68;74.86;100319.69;5103203;28;20175;-63
2023/05/20 07:11:31;;;;;;;4.70;3.50;;;;;;;18.92;80.89;100309.81;5096501;27;20259;-63
2023/05/20 07:13:57;;;;;;;5.70;3.97;;;;;;;18.61;85.95;100315.03;5099137;27;20206;-63
2023/05/20 07:16:22;;;;;;;4.17;3.80;;;;;;;17.36;93.29;100318.25;5085580;28;20662;-63
2023/05/20 07:18:48;;;;;;;5.93;4.00;;;;;;;16.85;98.00;100319.59;5100377;27;20542;-63
2023/05/20 07:21:13;;;;;;;4.33;3.93;;;;;;;16.64;100.00;100311.69;5091964;28;20690;-63
2023/05/20 07:23:38;;;;;;;5.50;4.60;;;;;;;16.68;100.00;100307.91;5103225;27;20566;-63
2023/05/20 07:26:04;;;;;;;4.37;3.97;;;;;;;16.55;100.00;100302.84;5094540;28;20237;-63
2023/05/20 07:28:29;;;;;;;4.73;4.30;;;;;;;16.62;100.00;100305.78;5097335;28;20632;-63
2023/05/20 07:30:56;;;;;;;6.37;3.83;;;;;;;16.62;100.00;100304.03;5070153;28;20222;-64
2023/05/20 07:33:21;;;;;;;4.57;4.17;;;;;;;17.45;98.79;100290.69;5080455;28;20196;-64
2023/05/20 07:35:46;;;;;;;4.57;4.17;;;;;;;18.69;88.79;100286.53;5086604;28;20188;-63
2023/05/20 07:38:12;;;;;;;4.87;4.43;;;;;;;18.79;87.38;100299.59;5096437;28;20203;-63
2023/05/20 07:40:41;;;;;;;9.50;4.73;;;;;;;17.65;94.56;100290.84;5088760;28;20356;-63
2023/05/20 07:43:07;;;;;;;5.20;4.50;;;;;;;16.59;99.88;100285.25;5107300;27;20184;-63
2023/05/20 07:45:36;;;;;;;6.20;4.30;;;;;;;16.51;100.00;100280.66;5094662;28;20267;-63
2023/05/20 07:48:01;;;;;;;5.43;4.93;;;;;;;16.72;100.00;100278.16;5096176;28;20187;-63
2023/05/20 07:50:27;;;;;;;5.30;4.37;;;;;;;17.30;99.74;100284.13;5085309;28;20221;-63
2023/05/20 07:52:52;;;;;;;5.43;4.93;;;;;;;17.80;96.08;100279.19;5108267;27;20576;-63
2023/05/20 07:55:17;;;;;;;4.87;4.47;;;;;;;18.12;94.84;100280.09;5094088;28;20184;-62
2023/05/20 07:57:43;;;;;;;4.17;3.87;;;;;;;18.16;93.11;100273.66;5111779;28;20598;-62
2023/05/20 08:00:09;;;;;;;4.70;4.30;;;;;;;18.38;91.72;100272.69;5102701;27;20183;-63
2023/05/20 08:02:34;;;;;;;6.57;4.63;;;;;;;17.70;95.07;100278.28;5127364;27;20254;-63
2023/05/20 08:05:00;;;;;;;7.37;4.53;;;;;;;17.58;96.50;100295.72;5111992;28;20191;-64
2023/05/20 08:07:25;;;;;;;5.10;4.60;;;;;;;17.17;99.71;100285.09;5112217;28;20171;-63
2023/05/20 08:09:51;;;;;;;5.97;4.87;;;;;;;17.25;99.32;100282.72;5077258;28;20186;-63
2023/05/20 08:12:16;;;;;;;5.20;4.70;;;;;;;16.80;100.00;100285.34;5103902;27;20324;-63
2023/05/20 08:14:42;;;;;;;7.43;5.10;;;;;;;16.93;100.00;100280.91;5100967;28;20717;-63
2023/05/20 08:17:08;;;;;;;6.07;5.17;;;;;;;16.67;100.00;100282.91;5110251;28;20646;-63
2023/05/20 08:19:33;;;;;;;6.93;5.67;;;;;;;16.67;100.00;100282.91;5098855;28;20244;-63
2023/05/20 08:21:58;;;;;;;5.30;4.80;;;;;;;16.85;100.00;100282.41;5100851;27;20230;-64
2023/05/20 08:24:24;;;;;;;6.23;5.33;;;;;;;16.82;100.00;100287.84;5113071;28;20175;-64
2023/05/20 08:26:49;;;;;;;7.83;5.47;;;;;;;17.00;100.00;100275.22;5098236;28;20179;-64
2023/05/20 08:29:15;;;;;;;5.83;5.23;;;;;;;16.92;100.00;100275.81;5101180;28;20184;-63
2023/05/20 08:31:40;;;;;;;5.87;5.30;;;;;;;17.09;100.00;100277.91;5094456;28;20219;-63
2023/05/20 08:34:05;;;;;;;6.17;4.87;;;;;;;17.76;98.85;100269.97;5094892;28;20192;-63
2023/05/20 08:36:31;;;;;;;5.93;5.33;;;;;;;17.73;96.77;100276.25;5091673;28;20172;-63
2023/05/20 08:38:56;;;;;;;7.47;5.70;;;;;;;17.69;98.57;100274.06;5092226;28;20284;-62
2023/05/20 08:41:23;;;;;;;6.53;5.93;;;;;;;17.43;99.37;100277.81;5097140;28;20674;-63
2023/05/20 08:43:49;;;;;;;6.73;5.97;;;;;;;17.58;99.81;100275.72;5103082;28;20634;-63
2023/05/20 08:46:16;;;;;;;7.43;5.60;;;;;;;18.41;94.28;100264.63;5106538;28;20225;-63
2023/05/20 08:48:41;;;;;;;7.37;5.10;;;;;;;19.43;87.69;100265.44;5085733;28;20203;-63
2023/05/20 08:51:09;;;;;;;5.80;5.30;;;;;;;19.37;88.79;100265.97;5109177;27;20214;-63
2023/05/20 08:53:35;;;;;;;5.90;5.30;;;;;;;19.53;86.89;100266.25;5118778;28;20195;-63
2023/05/20 08:56:02;;;;;;;6.33;5.70;;;;;;;19.01;89.03;100272.53;5110329;28;20175;-63
2023/05/20 08:58:31;;;;;;;6.67;6.07;;;;;;;18.70;91.02;100282.16;5100447;28;20180;-63
2023/05/20 09:00:57;;;;;;;8.10;5.67;;;;;;;19.35;91.03;100273.94;5106837;28;20765;-63
2023/05/20 09:03:24;;;;;;;8.50;5.70;;;;;;;20.21;80.79;100269.75;5120403;28;20187;-64
2023/05/20 09:05:53;;;;;;;9.60;5.47;;;;;;;20.21;81.74;100269.75;5110493;28;20171;-65
2023/05/20 09:08:22;;;;;;;6.40;5.80;;;;;;;20.00;83.01;100268.16;5081165;28;20175;-64
2023/05/20 09:10:51;;;;;;;6.47;5.10;;;;;;;20.32;81.53;100272.19;5088850;28;20256;-65
2023/05/20 09:13:16;;;;;;;6.33;5.73;;;;;;;19.68;86.37;100272.72;5114530;28;20257;-64
2023/05/20 09:15:42;;;;;;;6.87;6.17;;;;;;;19.47;88.97;100274.63;5095282;28;20231;-64
2023/05/20 09:18:07;;;;;;;6.50;5.77;;;;;;;19.05;90.18;100267.84;5095234;28;20172;-64
2023/05/20 09:20:35;;;;;;;6.10;5.30;;;;;;;19.37;89.79;100269.41;5067529;27;20242;-64
2023/05/20 09:23:03;;;;;;;6.23;5.63;;;;;;;18.82;91.23;100273.28;5107487;28;20220;-63
2023/05/20 09:25:28;;;;;;;8.10;6.23;;;;;;;18.53;93.55;100265.34;5096141;28;20192;-64
2023/05/20 09:27:54;;;;;;;8.17;6.73;;;;;;;18.23;96.03;100257.44;5095839;28;20542;-64
2023/05/20 09:30:20;;;;;;;7.37;6.20;;;;;;;18.87;93.68;100258.06;5087736;27;20172;-63
2023/05/20 09:32:55;;;;;;;7.13;6.30;;;;;;;19.56;88.50;100265.97;5091748;28;20176;-65
2023/05/20 09:35:25;;;;;;;7.20;6.50;;;;;;;19.89;86.70;100252.66;5095885;28;20187;-63
2023/05/20 09:37:55;;;;;;;8.03;5.80;;;;;;;21.15;74.08;100254.84;5095672;28;20176;-64
2023/05/20 09:40:26;;;;;;;6.27;5.67;;;;;;;21.32;73.59;100247.97;5087571;28;20267;-63
2023/05/20 09:43:07;;;;;;;7.67;6.47;;;;;;;22.11;66.24;100258.56;5090449;28;20245;-64
2023/05/20 09:45:33;;;;;;;5.83;5.33;;;;;;;21.69;66.48;100244.38;5094643;28;20188;-64
2023/05/20 09:48:01;;;;;;;6.53;5.90;;;;;;;21.44;68.37;100262.47;5095570;28;20259;-63
2023/05/20 09:50:27;;;;;;;13.60;6.00;;;;;;;21.35;69.10;100258.16;5075444;28;20225;-65
2023/05/20 09:52:53;;;;;;;6.80;5.00;;;;;;;22.32;64.46;100240.63;5108378;28;20192;-64
2023/05/20 09:55:22;;;;;;;7.97;6.20;;;;;;;21.14;70.75;100250.59;5094981;28;20565;-63
2023/05/20 09:57:47;;;;;;;6.70;6.20;;;;;;;19.44;83.73;100254.03;5108507;28;20229;-64
2023/05/20 10:00:16;;;;;;;7.77;6.93;;;;;;;18.49;93.76;100256.16;5085803;28;20204;-63
2023/05/20 10:02:52;;;;;;;6.93;6.33;;;;;;;18.33;96.60;100246.22;5109376;27;20172;-63
2023/05/20 10:05:22;;;;;;;6.80;6.17;;;;;;;18.93;93.25;100250.69;5096216;28;20192;-64
2023/05/20 10:08:12;;;;;;;6.70;6.10;;;;;;;18.97;93.33;100250.28;5115193;28;20195;-63
2023/05/20 10:10:53;;;;;;;10.00;5.33;;;;;;;18.65;93.88;100237.44;5102468;27;20223;-65
2023/05/20 10:13:56;;;;;;;7.03;6.33;;;;;;;19.40;90.10;100244.81;5122051;27;20205;-64
2023/05/20 10:16:41;;;;;;;6.93;6.30;;;;;;;21.76;72.76;100229.69;5113332;28;20191;-64
2023/05/20 10:19:16;;;;;;;12.23;6.40;;;;;;;22.66;62.28;100231.97;5104914;28;20180;-64
2023/05/20 10:21:41;;;;;;;6.30;5.57;;;;;;;21.45;68.42;100233.53;5093336;27;20311;-63
2023/05/20 10:24:08;;;;;;;6.07;5.57;;;;;;;20.11;81.02;100241.88;5084587;28;20633;-64
2023/05/20 10:26:38;;;;;;;6.80;6.10;;;;;;;19.47;87.36;100228.50;5087134;28;20196;-64
2023/05/20 10:29:19;;;;;;;7.53;6.60;;;;;;;19.64;85.75;100247.84;5108800;28;20714;-64
2023/05/20 10:31:49;;;;;;;9.57;6.43;;;;;;;20.06;85.64;100238.84;5116591;27;20226;-64
2023/05/20 10:34:19;;;;;;;7.57;6.90;;;;;;;19.93;85.87;100246.16;5113872;27;20196;-64
2023/05/20 10:36:53;;;;;;;8.00;6.70;;;;;;;19.06;90.80;100246.03;5082685;28;20192;-62
2023/05/20 10:39:24;;;;;;;8.40;7.67;;;;;;;18.84;93.08;100236.66;5075075;28;20179;-64
2023/05/20 10:41:50;;;;;;;8.70;7.80;;;;;;;18.72;93.90;100228.13;5110055;27;20227;-64
2023/05/20 10:44:15;;;;;;;7.93;7.17;;;;;;;18.54;95.87;100230.53;5114490;27;20611;-63
2023/05/20 10:46:40;;;;;;;8.43;7.47;;;;;;;18.54;95.94;100239.19;5110556;28;20709;-64
2023/05/20 10:49:17;;;;;;;7.73;7.03;;;;;;;18.71;95.98;100231.69;5112183;28;20269;-64
2023/05/20 10:51:44;;;;;;;8.23;6.83;;;;;;;18.70;95.69;100219.63;5113219;27;20448;-64
2023/05/20 10:54:10;;;;;;;8.40;7.63;;;;;;;18.85;96.01;100209.63;5114963;27;20199;-64
2023/05/20 10:56:35;;;;;;;7.40;6.70;;;;;;;19.00;94.83;100220.50;5112336;28;20203;-64
2023/05/20 10:59:01;;;;;;;7.77;7.07;;;;;;;18.98;93.05;100206.81;5113414;28;20211;-64
2023/05/20 11:01:26;;;;;;;7.83;7.00;;;;;;;19.20;92.75;100218.75;5086684;27;20228;-65
2023/05/20 11:03:54;;;;;;;7.57;6.83;;;;;;;19.03;93.97;100213.25;5075849;28;20184;-64
2023/05/20 11:06:27;;;;;;;6.60;5.53;;;;;;;19.47;94.79;100191.16;5093377;28;20662;-64
2023/05/20 11:08:52;;;;;;;8.33;6.80;;;;;;;19.82;91.37;100200.13;5071784;28;20188;-64
2023/05/20 11:11:17;;;;;;;7.93;6.60;;;;;;;19.94;88.78;100191.19;5083493;28;20283;-63
2023/05/20 11:13:42;;;;;;;7.93;6.13;;;;;;;20.12;87.78;100180.03;5078120;28;20200;-63
2023/05/20 11:16:08;;;;;;;7.40;6.70;;;;;;;19.80;85.66;100182.00;5081313;28;20277;-63